Terminal Aerodrome Forecast
Issued by NWS Wilmington, OH

Current Version | Previous Version | Graphics & Text | Print | Product List | Glossary On
Versions: 1 2 3 4 5 6 7 8 9 10 11 12 13 14 15 16 17 18 19 20 21 22 23 24 25 26 27 28 29 30 31
000
FTUS41 KILN 030800 AAA
TAFCVG
TAF AMD
KCVG 030856Z 0309/0412 10006KT P6SM OVC250
     FM031000 11007KT P6SM -FZRA OVC035
     FM031300 14007KT P6SM OVC025
     FM031500 15008KT 5SM BR BKN015 OVC035
     FM031900 20010KT 5SM -SHRA BR BKN012 OVC035
     FM032300 25011KT 3SM -RA BR OVC008
     FM040600 30008KT 5SM BR VCSH OVC006=

USA.gov is the U.S. government's official web portal to all federal, state and local government web resources and services.